createdAt,value
2022-11-24T00:09:51.780Z,3.35
2022-11-24T00:19:30.045Z,2.65
2022-11-24T00:21:56.904Z,2.80
2022-11-24T00:24:23.917Z,3.10
2022-11-24T00:38:12.473Z,2.75
2022-11-24T00:56:08.840Z,2.75
2022-11-24T01:14:07.366Z,2.70
2022-11-24T01:16:35.677Z,2.92
2022-11-24T01:19:04.225Z,2.88
2022-11-24T01:40:16.572Z,2.80
2022-11-24T01:42:49.245Z,2.50
2022-11-24T02:26:35.448Z,2.03
2022-11-24T02:29:46.350Z,2.08
2022-11-24T02:37:58.720Z,2.15
2022-11-24T02:40:34.559Z,2.50
2022-11-24T02:43:12.158Z,2.30
2022-11-24T02:46:57.982Z,2.05
2022-11-24T02:52:00.690Z,2.10
2022-11-24T02:57:33.157Z,2.15
2022-11-24T03:02:49.010Z,2.42
2022-11-24T03:12:06.599Z,2.50
2022-11-24T03:14:33.667Z,2.22
2022-11-24T03:34:22.523Z,2.58
2022-11-24T03:36:49.355Z,2.10
2022-11-24T03:47:01.638Z,2.22
2022-11-24T03:52:18.308Z,1.67
2022-11-24T03:58:16.798Z,1.90
2022-11-24T04:00:46.644Z,1.90
2022-11-24T04:03:31.486Z,2.10
2022-11-24T04:11:50.508Z,2.13
2022-11-24T04:14:18.478Z,2.10
2022-11-24T04:40:51.596Z,2.08
2022-11-24T05:11:06.734Z,1.48
2022-11-24T05:28:10.860Z,1.60
2022-11-24T05:34:21.928Z,2.10
2022-11-24T05:42:46.683Z,1.60
2022-11-24T05:48:20.023Z,1.77
2022-11-24T05:56:58.558Z,2.05
2022-11-24T06:07:39.123Z,2.05
2022-11-24T06:10:12.735Z,1.83
2022-11-24T06:12:39.564Z,1.90
2022-11-24T06:58:25.999Z,1.80
2022-11-24T07:10:05.070Z,1.70
2022-11-24T07:18:21.648Z,1.70
2022-11-24T07:28:18.444Z,1.75
2022-11-24T07:40:19.152Z,1.58
2022-11-24T07:47:09.376Z,1.83
2022-11-24T07:55:02.095Z,2.00
2022-11-24T07:57:29.186Z,2.10
2022-11-24T08:03:33.307Z,1.65
2022-11-24T08:06:27.227Z,1.75
2022-11-24T08:12:44.064Z,2.05
2022-11-24T08:15:31.717Z,2.20
2022-11-24T08:18:01.379Z,2.03
2022-11-24T08:23:59.255Z,1.80
2022-11-24T08:26:26.356Z,1.90
2022-11-24T08:28:57.775Z,2.15
2022-11-24T08:31:27.422Z,1.67
2022-11-24T08:34:01.331Z,1.95
2022-11-24T08:36:28.040Z,1.80
2022-11-24T08:38:56.393Z,2.13
2022-11-24T08:41:35.691Z,2.00
2022-11-24T08:47:58.107Z,1.73
2022-11-24T08:50:30.999Z,2.00
2022-11-24T08:53:15.916Z,2.08
2022-11-24T08:55:42.605Z,2.15
2022-11-24T08:58:43.855Z,1.85
2022-11-24T09:08:42.077Z,2.10
2022-11-24T09:11:40.659Z,2.42
2022-11-24T09:14:07.549Z,1.77
2022-11-24T09:16:34.290Z,1.92
2022-11-24T09:19:07.929Z,2.03
2022-11-24T09:21:40.711Z,2.00
2022-11-24T09:24:08.180Z,2.22
2022-11-24T09:26:36.912Z,2.10
2022-11-24T09:29:19.473Z,2.33
2022-11-24T09:31:49.347Z,1.80
2022-11-24T09:34:16.556Z,1.90
2022-11-24T09:36:51.507Z,2.22
2022-11-24T09:39:18.436Z,1.77
2022-11-24T09:42:18.635Z,2.17
2022-11-24T09:45:48.909Z,2.30
2022-11-24T09:48:21.147Z,1.95
2022-11-24T09:50:49.730Z,1.77
2022-11-24T09:53:44.913Z,2.15
2022-11-24T09:57:00.331Z,2.10
2022-11-24T09:59:28.429Z,2.35
2022-11-24T10:02:10.557Z,2.30
2022-11-24T10:04:43.162Z,2.30
2022-11-24T10:07:39.076Z,2.72
2022-11-24T10:10:24.290Z,2.53
2022-11-24T10:13:12.492Z,2.30
2022-11-24T10:15:55.738Z,2.47
2022-11-24T10:18:37.714Z,2.05
2022-11-24T10:21:24.924Z,2.70
2022-11-24T10:24:00.083Z,2.33
2022-11-24T10:26:36.252Z,2.60
2022-11-24T10:29:18.184Z,2.33
2022-11-24T10:31:51.364Z,2.60
2022-11-24T10:34:23.171Z,2.28
2022-11-24T10:37:12.592Z,2.65
2022-11-24T10:40:56.034Z,2.50
2022-11-24T10:43:17.422Z,2.13
2022-11-24T10:46:16.371Z,2.40
2022-11-24T10:48:56.596Z,2.65
2022-11-24T10:51:47.861Z,2.53
2022-11-24T10:54:18.298Z,2.40
2022-11-24T10:56:47.019Z,2.90
2022-11-24T10:59:19.941Z,2.88
2022-11-24T11:01:46.674Z,2.50
2022-11-24T11:04:36.637Z,2.47
2022-11-24T11:10:45.524Z,2.97
2022-11-24T11:13:34.206Z,2.22
2022-11-24T11:16:35.566Z,2.22
2022-11-24T11:19:20.228Z,2.65
2022-11-24T11:22:06.238Z,2.30
2022-11-24T11:24:33.494Z,2.30
2022-11-24T11:27:44.609Z,2.60
2022-11-24T11:36:11.713Z,1.98
2022-11-24T11:38:42.894Z,2.20
2022-11-24T11:41:19.291Z,2.38
2022-11-24T11:43:50.409Z,2.50
2022-11-24T11:46:17.349Z,2.20
2022-11-24T11:48:46.909Z,2.13
2022-11-24T11:51:40.576Z,2.40
2022-11-24T11:54:18.838Z,1.70
2022-11-24T11:57:08.193Z,2.22
2022-11-24T11:59:46.602Z,2.25
2022-11-24T12:02:42.078Z,2.15
2022-11-24T12:12:43.561Z,1.88
2022-11-24T12:15:49.512Z,1.95
2022-11-24T12:19:25.467Z,2.28
2022-11-24T12:22:13.395Z,1.92
2022-11-24T12:25:17.033Z,2.60
2022-11-24T12:28:01.417Z,2.42
2022-11-24T12:31:16.511Z,2.35
2022-11-24T12:34:23.747Z,3.00
2022-11-24T12:37:37.997Z,3.78
2022-11-24T12:47:28.095Z,4.50
2022-11-24T12:50:05.995Z,3.85
2022-11-24T12:53:25.785Z,3.30
2022-11-24T12:55:58.759Z,3.22
2022-11-24T12:59:09.729Z,3.88
2022-11-24T13:02:03.317Z,3.70
2022-11-24T13:05:13.159Z,3.55
2022-11-24T13:07:47.449Z,2.80
2022-11-24T13:13:28.357Z,3.30
2022-11-24T13:22:26.300Z,3.13
2022-11-24T13:25:20.315Z,3.30
2022-11-24T13:28:00.746Z,3.40
2022-11-24T13:34:39.837Z,2.72
2022-11-24T13:37:55.479Z,2.70
2022-11-24T13:40:33.808Z,3.15
2022-11-24T13:43:02.518Z,3.25
2022-11-24T13:45:49.131Z,3.42
2022-11-24T13:48:45.097Z,3.65
2022-11-24T13:51:23.445Z,3.10
2022-11-24T13:53:54.763Z,3.38
2022-11-24T13:56:24.637Z,3.33
2022-11-24T13:58:58.552Z,3.40
2022-11-24T14:01:40.634Z,3.30
2022-11-24T14:04:36.034Z,3.58
2022-11-24T14:07:20.476Z,3.13
2022-11-24T14:09:51.595Z,3.20
2022-11-24T14:12:34.782Z,3.03
2022-11-24T14:15:24.889Z,3.20
2022-11-24T14:17:51.646Z,3.17
2022-11-24T14:20:26.859Z,3.00
2022-11-24T14:22:54.100Z,3.80
2022-11-24T14:25:32.324Z,2.70
2022-11-24T14:28:00.195Z,2.65
2022-11-24T14:30:27.504Z,2.97
2022-11-24T14:33:02.030Z,3.15
2022-11-24T14:35:45.561Z,3.17
2022-11-24T14:52:56.878Z,2.65
2022-11-24T14:55:42.312Z,3.08
2022-11-24T14:58:40.551Z,2.55
2022-11-24T15:01:36.148Z,2.60
2022-11-24T15:04:32.561Z,2.85
2022-11-24T15:11:20.491Z,2.38
2022-11-24T15:13:54.367Z,2.80
2022-11-24T15:16:32.804Z,2.70
2022-11-24T15:35:44.464Z,2.47
2022-11-24T15:38:11.875Z,2.65
2022-11-24T15:40:39.936Z,3.25
2022-11-24T15:43:31.256Z,2.55
2022-11-24T15:49:36.184Z,2.80
2022-11-24T15:52:02.928Z,2.20
2022-11-24T15:54:32.574Z,2.55
2022-11-24T15:56:59.678Z,2.90
2022-11-24T16:02:08.430Z,2.78
2022-11-24T16:04:35.536Z,3.10
2022-11-24T16:07:03.799Z,3.13
2022-11-24T16:09:30.470Z,3.33
2022-11-24T16:11:57.229Z,3.20
2022-11-24T16:14:24.043Z,3.67
2022-11-24T16:16:51.014Z,3.17
2022-11-24T16:19:17.766Z,2.70
2022-11-24T16:21:47.976Z,4.05
2022-11-24T16:24:14.847Z,2.60
2022-11-24T16:26:41.579Z,3.30
2022-11-24T16:29:08.374Z,2.70
2022-11-24T16:31:37.629Z,2.80
2022-11-24T16:34:04.437Z,2.58
2022-11-24T16:36:31.141Z,2.58
2022-11-24T16:39:04.193Z,2.67
2022-11-24T16:41:30.945Z,2.67
2022-11-24T16:43:57.780Z,2.60
2022-11-24T16:46:25.073Z,2.63
2022-11-24T16:48:57.314Z,2.30
2022-11-24T16:51:27.778Z,2.65
2022-11-24T16:54:00.004Z,2.70
2022-11-24T16:56:30.871Z,2.80
2022-11-24T16:58:57.623Z,2.10
2022-11-24T17:01:25.757Z,2.20
2022-11-24T17:03:52.732Z,2.20
2022-11-24T17:06:19.504Z,2.45
2022-11-24T17:08:51.584Z,2.50
2022-11-24T17:11:21.337Z,2.58
2022-11-24T17:13:49.187Z,2.50
2022-11-24T17:16:21.363Z,2.50
2022-11-24T17:18:49.093Z,2.97
2022-11-24T17:21:21.886Z,2.50
2022-11-24T17:23:53.013Z,2.45
2022-11-24T17:26:22.505Z,2.20
2022-11-24T17:28:51.865Z,2.25
2022-11-24T17:31:29.110Z,2.10
2022-11-24T17:33:57.446Z,2.70
2022-11-24T17:36:24.477Z,2.45
2022-11-24T17:38:51.695Z,2.08
2022-11-24T17:41:19.542Z,1.88
2022-11-24T17:43:55.429Z,2.30
2022-11-24T17:46:22.576Z,1.92
2022-11-24T17:48:49.785Z,2.30
2022-11-24T17:51:19.085Z,2.10
2022-11-24T17:53:49.294Z,1.92
2022-11-24T17:56:18.391Z,2.50
2022-11-24T17:58:45.088Z,2.10
2022-11-24T18:01:13.365Z,2.00
2022-11-24T18:03:41.194Z,2.05
2022-11-24T18:06:09.061Z,2.10
2022-11-24T18:08:36.887Z,2.03
2022-11-24T18:11:07.441Z,2.00
2022-11-24T18:13:55.587Z,2.10
2022-11-24T18:16:21.074Z,2.25
2022-11-24T18:18:50.418Z,2.25
2022-11-24T18:21:18.187Z,1.80
2022-11-24T18:23:45.031Z,2.17
2022-11-24T18:26:14.822Z,2.00
2022-11-24T18:28:44.806Z,2.00
2022-11-24T18:31:14.108Z,2.00
2022-11-24T18:33:42.769Z,2.08
2022-11-24T18:36:15.392Z,1.95
2022-11-24T18:38:42.597Z,2.10
2022-11-24T18:44:28.505Z,2.42
2022-11-24T18:47:16.283Z,2.08
2022-11-24T18:50:00.227Z,1.70
2022-11-24T18:52:27.109Z,2.30
2022-11-24T18:55:05.155Z,2.28
2022-11-24T18:57:31.877Z,1.77
2022-11-24T18:59:58.704Z,2.03
2022-11-24T19:02:25.487Z,2.30
2022-11-24T19:04:52.156Z,2.03
2022-11-24T19:07:20.357Z,2.10
2022-11-24T19:09:50.093Z,2.05
2022-11-24T19:12:16.966Z,2.08
2022-11-24T19:14:43.728Z,1.75
2022-11-24T19:17:10.494Z,2.28
2022-11-24T19:19:37.258Z,2.00
2022-11-24T19:22:04.148Z,2.20
2022-11-24T19:24:34.199Z,2.25
2022-11-24T19:27:01.024Z,2.13
2022-11-24T19:29:27.800Z,2.15
2022-11-24T19:31:55.304Z,1.92
2022-11-24T19:34:22.065Z,1.98
2022-11-24T19:36:48.808Z,1.88
2022-11-24T19:39:16.668Z,2.25
2022-11-24T19:41:43.867Z,2.30
2022-11-24T19:44:13.850Z,2.53
2022-11-24T19:46:40.823Z,2.10
2022-11-24T19:49:08.843Z,1.85
2022-11-24T19:51:38.408Z,2.38
2022-11-24T19:54:07.146Z,2.25
2022-11-24T19:56:36.059Z,2.20
2022-11-24T19:59:04.685Z,2.30
2022-11-24T20:01:34.491Z,2.20
2022-11-24T20:04:18.069Z,2.30
2022-11-24T20:06:46.938Z,2.22
2022-11-24T20:09:16.199Z,2.10
2022-11-24T20:11:43.356Z,2.10
2022-11-24T20:14:13.137Z,1.90
2022-11-24T20:16:53.028Z,2.38
2022-11-24T20:19:52.255Z,1.90
2022-11-24T20:22:20.891Z,2.45
2022-11-24T20:24:47.645Z,2.15
2022-11-24T20:27:14.702Z,1.77
2022-11-24T20:29:46.627Z,2.00
2022-11-24T20:32:20.652Z,2.10
2022-11-24T20:34:47.577Z,2.15
2022-11-24T20:37:14.468Z,2.13
2022-11-24T20:39:41.303Z,2.53
2022-11-24T20:42:08.325Z,1.80
2022-11-24T20:44:35.194Z,2.38
2022-11-24T20:47:03.332Z,2.30
2022-11-24T20:49:37.697Z,2.10
2022-11-24T20:52:07.568Z,2.47
2022-11-24T20:54:34.687Z,2.28
2022-11-24T20:57:04.423Z,2.03
2022-11-24T20:59:36.172Z,2.03
2022-11-24T21:02:03.028Z,2.28
2022-11-24T21:04:29.926Z,2.13
2022-11-24T21:06:57.067Z,2.58
2022-11-24T21:09:24.796Z,1.90
2022-11-24T21:11:51.498Z,2.00
2022-11-24T21:14:41.013Z,2.50
2022-11-24T21:17:07.846Z,2.13
2022-11-24T21:19:34.546Z,1.90
2022-11-24T21:22:01.433Z,2.38
2022-11-24T21:24:35.003Z,2.03
2022-11-24T21:30:50.135Z,2.13
2022-11-24T21:33:17.032Z,1.92
2022-11-24T21:35:44.523Z,2.50
2022-11-24T21:38:11.964Z,1.95
2022-11-24T21:40:39.721Z,2.05
2022-11-24T21:43:06.457Z,2.38
2022-11-24T21:45:37.145Z,2.10
2022-11-24T21:48:03.982Z,2.22
2022-11-24T21:50:33.469Z,2.20
2022-11-24T21:53:03.430Z,2.08
2022-11-24T21:55:33.520Z,1.92
2022-11-24T22:00:41.105Z,2.05
2022-11-24T22:03:37.283Z,2.10
2022-11-24T22:10:08.471Z,2.35
2022-11-24T22:12:35.173Z,2.25
2022-11-24T22:15:02.242Z,2.58
2022-11-24T22:17:31.109Z,2.42
2022-11-24T22:20:00.775Z,2.35
2022-11-24T22:22:42.540Z,2.08
2022-11-24T22:25:09.406Z,2.38
2022-11-24T22:27:36.116Z,2.00
2022-11-24T22:30:05.957Z,2.17
2022-11-24T22:32:33.016Z,2.30
2022-11-24T22:35:03.067Z,2.05
2022-11-24T22:37:35.565Z,2.70
2022-11-24T22:45:41.872Z,2.30
2022-11-24T23:03:50.373Z,2.30
2022-11-24T23:06:42.569Z,2.55
2022-11-24T23:09:24.164Z,2.85
2022-11-24T23:11:51.024Z,3.50
2022-11-24T23:18:06.390Z,2.30
2022-11-24T23:20:35.073Z,2.63
2022-11-24T23:25:40.350Z,3.20
2022-11-24T23:30:35.919Z,3.20
2022-11-24T23:38:35.226Z,2.80
2022-11-24T23:44:39.722Z,3.00
2022-11-24T23:47:15.503Z,3.35
2022-11-24T23:49:48.493Z,2.88
2022-11-24T23:53:15.853Z,2.88
2022-11-24T23:56:37.121Z,2.97
2022-11-24T23:59:05.377Z,3.20
